createdAt,value
2022-08-05T00:00:19.043Z,17.40
2022-08-05T00:02:51.098Z,17.50
2022-08-05T00:06:02.792Z,17.13
2022-08-05T00:08:35.284Z,19.48
2022-08-05T00:11:00.770Z,18.05
2022-08-05T00:13:38.892Z,20.02
2022-08-05T00:16:16.117Z,19.13
2022-08-05T00:18:46.364Z,16.42
2022-08-05T00:21:16.606Z,17.02
2022-08-05T00:23:53.746Z,21.15
2022-08-05T00:26:33.187Z,18.25
2022-08-05T00:29:00.197Z,19.58
2022-08-05T00:31:53.763Z,19.20
2022-08-05T00:34:53.875Z,15.88
2022-08-05T00:37:12.798Z,16.80
2022-08-05T00:39:58.625Z,19.60
2022-08-05T00:42:42.263Z,17.45
2022-08-05T00:45:15.488Z,18.42
2022-08-05T00:47:56.657Z,17.63
2022-08-05T00:50:25.625Z,20.55
2022-08-05T00:52:55.173Z,15.57
2022-08-05T00:55:23.251Z,16.88
2022-08-05T00:58:11.296Z,16.88
2022-08-05T01:00:39.798Z,18.17
2022-08-05T01:03:07.933Z,17.73
2022-08-05T01:05:35.353Z,21.20
2022-08-05T01:08:40.803Z,18.92
2022-08-05T01:11:01.105Z,15.70
2022-08-05T01:13:59.443Z,18.77
2022-08-05T01:17:05.268Z,16.95
2022-08-05T01:19:56.470Z,19.35
2022-08-05T01:22:34.655Z,16.52
2022-08-05T01:25:42.376Z,18.65
2022-08-05T01:28:44.251Z,17.10
2022-08-05T01:31:18.909Z,18.13
2022-08-05T01:33:53.799Z,18.27
2022-08-05T01:36:28.164Z,19.67
2022-08-05T01:38:56.965Z,19.95
2022-08-05T01:41:32.729Z,20.23
2022-08-05T01:44:02.226Z,18.50
2022-08-05T01:46:41.984Z,30.77
2022-08-05T01:49:23.789Z,18.45
2022-08-05T01:51:58.733Z,20.27
2022-08-05T01:54:46.924Z,18.38
2022-08-05T01:58:10.466Z,18.92
2022-08-05T02:00:13.044Z,19.77
2022-08-05T02:02:54.397Z,18.30
2022-08-05T02:05:29.056Z,20.52
2022-08-05T02:08:01.723Z,19.08
2022-08-05T02:10:43.835Z,21.95
2022-08-05T02:13:25.863Z,22.38
2022-08-05T02:16:19.590Z,31.10
2022-08-05T02:19:01.277Z,21.85
2022-08-05T02:21:40.313Z,20.77
2022-08-05T02:24:17.992Z,19.98
2022-08-05T02:26:53.731Z,17.95
2022-08-05T02:29:58.000Z,21.38
2022-08-05T02:32:23.737Z,22.35
2022-08-05T02:34:54.600Z,18.48
2022-08-05T02:37:23.902Z,20.88
2022-08-05T02:39:52.773Z,19.48
2022-08-05T02:42:27.662Z,18.40
2022-08-05T02:44:58.956Z,18.92
2022-08-05T02:47:58.438Z,18.42
2022-08-05T02:50:18.082Z,17.42
2022-08-05T02:52:47.009Z,20.23
2022-08-05T02:55:14.734Z,21.30
2022-08-05T02:58:11.378Z,20.02
2022-08-05T03:00:35.250Z,16.50
2022-08-05T03:03:10.153Z,22.33
2022-08-05T03:06:53.577Z,18.35
2022-08-05T03:08:30.049Z,20.42
2022-08-05T03:11:55.786Z,18.88
2022-08-05T03:13:51.915Z,19.15
2022-08-05T03:16:30.527Z,19.38
2022-08-05T03:19:00.229Z,20.13
2022-08-05T03:21:28.852Z,20.67
2022-08-05T03:24:00.739Z,18.90
2022-08-05T03:26:31.420Z,30.13
2022-08-05T03:29:00.463Z,19.95
2022-08-05T03:31:55.923Z,21.13
2022-08-05T03:34:16.729Z,20.00
2022-08-05T03:36:43.889Z,18.95
2022-08-05T03:39:19.822Z,21.63
2022-08-05T03:41:47.448Z,24.00
2022-08-05T03:44:19.790Z,19.08
2022-08-05T03:46:47.460Z,18.10
2022-08-05T03:49:15.564Z,20.23
2022-08-05T03:52:48.882Z,22.20
2022-08-05T03:56:09.477Z,17.63
2022-08-05T03:58:11.277Z,18.70
2022-08-05T04:00:42.015Z,19.05
2022-08-05T04:03:15.060Z,21.00
2022-08-05T04:05:59.187Z,18.02
2022-08-05T04:08:34.858Z,22.33
2022-08-05T04:11:08.517Z,18.35
2022-08-05T04:13:50.120Z,19.00
2022-08-05T04:16:25.548Z,18.10
2022-08-05T04:19:00.034Z,19.88
2022-08-05T04:22:09.221Z,16.60
2022-08-05T04:24:19.396Z,16.20
2022-08-05T04:26:50.539Z,21.95
2022-08-05T04:29:17.526Z,16.05
2022-08-05T04:31:44.499Z,22.00
2022-08-05T04:34:24.484Z,17.88
2022-08-05T04:37:03.109Z,18.95
2022-08-05T04:39:32.067Z,17.08
2022-08-05T04:41:59.219Z,21.17
2022-08-05T04:44:29.400Z,18.88
2022-08-05T04:46:59.558Z,17.30
2022-08-05T04:49:39.195Z,13.88
2022-08-05T04:52:15.468Z,15.85
2022-08-05T04:54:42.665Z,19.05
2022-08-05T04:57:09.688Z,18.20
2022-08-05T04:59:40.775Z,16.38
2022-08-05T05:02:41.491Z,17.27
2022-08-05T05:05:02.163Z,15.35
2022-08-05T05:07:32.463Z,16.73
2022-08-05T05:10:04.469Z,17.73
2022-08-05T05:12:34.500Z,14.07
2022-08-05T05:15:05.474Z,13.20
2022-08-05T05:17:56.334Z,15.73
2022-08-05T05:20:28.502Z,17.73
2022-08-05T05:23:08.480Z,13.88
2022-08-05T05:25:46.671Z,12.63
2022-08-05T05:28:15.012Z,14.10
2022-08-05T05:30:42.794Z,14.23
2022-08-05T05:33:17.546Z,13.52
2022-08-05T05:35:53.699Z,12.10
2022-08-05T05:38:22.679Z,14.18
2022-08-05T05:40:56.270Z,12.32
2022-08-05T05:43:56.430Z,14.32
2022-08-05T05:46:17.598Z,12.10
2022-08-05T05:48:49.251Z,11.70
2022-08-05T05:51:23.479Z,14.82
2022-08-05T05:53:58.696Z,12.55
2022-08-05T05:56:34.162Z,12.75
2022-08-05T05:59:08.247Z,10.18
2022-08-05T06:01:40.981Z,10.63
2022-08-05T06:04:24.809Z,9.90
2022-08-05T06:06:51.846Z,12.27
2022-08-05T06:09:50.221Z,14.82
2022-08-05T06:12:19.563Z,10.57
2022-08-05T06:14:46.736Z,12.68
2022-08-05T06:17:22.597Z,12.80
2022-08-05T06:19:56.711Z,12.55
2022-08-05T06:22:33.756Z,13.30
2022-08-05T06:26:12.424Z,12.95
2022-08-05T06:28:21.189Z,10.98
2022-08-05T06:30:56.325Z,11.30
2022-08-05T06:33:44.413Z,10.90
2022-08-05T06:36:19.041Z,12.38
2022-08-05T06:38:55.012Z,11.23
2022-08-05T06:41:22.422Z,11.48
2022-08-05T06:44:00.238Z,13.95
2022-08-05T06:46:39.813Z,10.70
2022-08-05T06:49:14.884Z,10.68
2022-08-05T06:51:42.790Z,10.25
2022-08-05T06:54:19.097Z,12.48
2022-08-05T06:56:54.968Z,14.70
2022-08-05T06:59:38.476Z,10.90
2022-08-05T07:02:05.968Z,9.98
2022-08-05T07:04:37.530Z,11.13
2022-08-05T07:07:08.093Z,11.40
2022-08-05T07:09:40.428Z,12.98
2022-08-05T07:12:30.253Z,15.68
2022-08-05T07:15:34.122Z,14.15
2022-08-05T07:18:08.924Z,10.90
2022-08-05T07:20:39.244Z,11.27
2022-08-05T07:23:06.557Z,11.35
2022-08-05T07:25:56.517Z,10.88
2022-08-05T07:28:20.998Z,10.27
2022-08-05T07:30:52.916Z,11.65
2022-08-05T07:33:36.501Z,13.15
2022-08-05T07:36:20.814Z,13.88
2022-08-05T07:38:49.768Z,11.95
2022-08-05T07:42:14.449Z,11.38
2022-08-05T07:44:19.090Z,12.15
2022-08-05T07:46:49.543Z,11.48
2022-08-05T07:49:18.818Z,11.70
2022-08-05T07:51:53.423Z,10.70
2022-08-05T07:54:30.867Z,10.60
2022-08-05T07:57:17.814Z,11.98
2022-08-05T07:59:50.742Z,16.90
2022-08-05T08:02:18.425Z,13.73
2022-08-05T08:04:48.347Z,12.20
2022-08-05T08:07:22.450Z,11.68
2022-08-05T08:09:52.929Z,10.93
2022-08-05T08:12:35.429Z,11.73
2022-08-05T08:15:15.699Z,10.82
2022-08-05T08:17:49.743Z,12.18
2022-08-05T08:21:00.107Z,11.95
2022-08-05T08:24:03.591Z,10.70
2022-08-05T08:26:02.847Z,14.25
2022-08-05T08:28:36.050Z,11.40
2022-08-05T08:31:08.466Z,11.45
2022-08-05T08:33:37.921Z,10.13
2022-08-05T08:38:56.015Z,10.43
2022-08-05T08:41:52.431Z,10.93
2022-08-05T08:45:19.601Z,11.80
2022-08-05T08:47:46.879Z,9.75
2022-08-05T08:50:13.195Z,10.35
2022-08-05T08:53:01.242Z,10.43
2022-08-05T08:55:31.886Z,10.35
2022-08-05T08:58:17.287Z,12.18
2022-08-05T09:00:44.712Z,11.68
2022-08-05T09:03:12.510Z,11.05
2022-08-05T09:06:08.664Z,10.60
2022-08-05T09:08:34.550Z,10.38
2022-08-05T09:11:01.756Z,10.13
2022-08-05T09:13:31.657Z,11.00
2022-08-05T09:15:59.928Z,13.13
2022-08-05T09:18:27.483Z,9.82
2022-08-05T09:20:55.092Z,9.73
2022-08-05T09:23:23.519Z,12.75
2022-08-05T09:26:20.540Z,11.80
2022-08-05T09:28:59.279Z,11.05
2022-08-05T09:32:39.855Z,11.95
2022-08-05T09:34:14.484Z,9.18
2022-08-05T09:36:55.884Z,10.40
2022-08-05T09:39:41.392Z,10.10
2022-08-05T09:42:23.120Z,11.32
2022-08-05T09:44:56.657Z,11.57
2022-08-05T09:47:36.361Z,9.40
2022-08-05T09:50:18.028Z,9.85
2022-08-05T09:53:02.039Z,13.13
2022-08-05T09:55:59.124Z,10.95
2022-08-05T09:58:24.778Z,11.02
2022-08-05T10:00:59.939Z,10.63
2022-08-05T10:03:51.829Z,10.90
2022-08-05T10:06:20.749Z,10.43
2022-08-05T10:08:50.436Z,11.63
2022-08-05T10:11:23.488Z,10.88
2022-08-05T10:13:55.853Z,11.55
2022-08-05T10:16:52.435Z,10.23
2022-08-05T10:20:04.389Z,11.85
2022-08-05T10:22:29.672Z,10.88
2022-08-05T10:25:09.902Z,12.00
2022-08-05T10:28:12.791Z,10.60
2022-08-05T10:32:48.096Z,10.32
2022-08-05T10:33:55.536Z,14.32
2022-08-05T10:36:25.979Z,11.70
2022-08-05T10:39:04.984Z,10.88
2022-08-05T10:41:54.961Z,11.82
2022-08-05T10:44:24.834Z,13.98
2022-08-05T10:46:55.339Z,11.25
2022-08-05T10:49:27.610Z,12.23
2022-08-05T10:52:10.535Z,10.07
2022-08-05T10:55:05.867Z,11.48
2022-08-05T10:57:34.287Z,11.82
2022-08-05T11:00:14.779Z,10.55
2022-08-05T11:03:24.923Z,11.40
2022-08-05T11:06:15.127Z,13.23
2022-08-05T11:09:32.426Z,13.30
2022-08-05T11:12:50.763Z,11.55
2022-08-05T11:15:59.259Z,13.10
2022-08-05T11:18:29.791Z,12.32
2022-08-05T11:21:11.277Z,11.07
2022-08-05T11:24:05.225Z,12.27
2022-08-05T11:29:12.789Z,13.40
2022-08-05T11:31:57.072Z,11.60
2022-08-05T11:34:39.123Z,9.95
2022-08-05T11:38:36.447Z,12.35
2022-08-05T11:39:55.427Z,12.88
2022-08-05T11:42:29.009Z,13.68
2022-08-05T11:45:05.402Z,18.63
2022-08-05T11:47:48.621Z,12.75
2022-08-05T11:50:18.552Z,11.52
2022-08-05T11:52:49.473Z,10.43
2022-08-05T11:55:17.631Z,11.32
2022-08-05T11:58:08.156Z,12.10
2022-08-05T12:00:37.818Z,12.98
2022-08-05T12:03:29.030Z,16.40
2022-08-05T12:06:03.319Z,15.00
2022-08-05T12:08:34.205Z,11.30
2022-08-05T12:11:10.353Z,11.23
2022-08-05T12:14:14.588Z,14.40
2022-08-05T12:16:50.008Z,12.60
2022-08-05T12:20:25.959Z,12.60
2022-08-05T12:22:09.571Z,14.32
2022-08-05T12:24:43.729Z,11.18
2022-08-05T12:27:36.207Z,10.52
2022-08-05T12:30:22.656Z,14.40
2022-08-05T12:33:07.422Z,11.23
2022-08-05T12:35:49.982Z,12.07
2022-08-05T12:38:30.247Z,11.25
2022-08-05T12:40:59.868Z,12.38
2022-08-05T12:43:27.134Z,12.82
2022-08-05T12:48:27.345Z,10.90
2022-08-05T12:52:10.353Z,10.23
2022-08-05T12:54:05.051Z,11.05
2022-08-05T12:56:53.721Z,17.13
2022-08-05T12:59:27.453Z,12.52
2022-08-05T13:02:13.537Z,12.02
2022-08-05T13:04:54.509Z,13.32
2022-08-05T13:07:54.732Z,10.93
2022-08-05T13:10:13.706Z,13.23
2022-08-05T13:12:57.155Z,10.70
2022-08-05T13:15:41.076Z,11.43
2022-08-05T13:18:20.172Z,10.90
2022-08-05T13:20:50.128Z,12.27
2022-08-05T13:23:22.556Z,12.80
2022-08-05T13:26:01.056Z,12.13
2022-08-05T13:28:29.117Z,10.40
2022-08-05T13:31:11.151Z,10.23
2022-08-05T13:34:22.358Z,10.43
2022-08-05T13:36:29.794Z,10.60
2022-08-05T13:38:57.028Z,12.35
2022-08-05T13:41:35.893Z,10.38
2022-08-05T13:44:05.501Z,9.73
2022-08-05T13:46:50.655Z,10.63
2022-08-05T13:49:20.456Z,11.75
2022-08-05T13:51:48.613Z,12.93
2022-08-05T13:54:21.077Z,11.05
2022-08-05T13:56:52.861Z,10.85
2022-08-05T13:59:24.924Z,13.43
2022-08-05T14:01:58.383Z,11.18
2022-08-05T14:04:57.045Z,11.05
2022-08-05T14:08:00.761Z,12.13
2022-08-05T14:10:30.675Z,11.63
2022-08-05T14:12:59.633Z,11.23
2022-08-05T14:16:08.430Z,12.52
2022-08-05T14:18:23.194Z,10.15
2022-08-05T14:20:54.498Z,10.35
2022-08-05T14:23:25.075Z,9.82
2022-08-05T14:25:58.640Z,11.25
2022-08-05T14:28:29.866Z,11.20
2022-08-05T14:30:58.731Z,11.82
2022-08-05T14:33:25.888Z,11.38
2022-08-05T14:35:54.400Z,11.15
2022-08-05T14:38:32.911Z,9.40
2022-08-05T14:41:28.567Z,12.63
2022-08-05T14:44:02.711Z,10.23
2022-08-05T14:46:40.671Z,15.40
2022-08-05T14:49:09.821Z,10.97
2022-08-05T14:51:38.457Z,9.90
2022-08-05T14:54:29.930Z,9.88
2022-08-05T14:56:59.006Z,11.45
2022-08-05T14:59:29.215Z,10.88
2022-08-05T15:01:57.853Z,12.68
2022-08-05T15:04:27.469Z,11.85
2022-08-05T15:06:56.508Z,9.18
2022-08-05T15:09:54.217Z,11.23
2022-08-05T15:12:16.578Z,12.13
2022-08-05T15:14:50.163Z,10.25
2022-08-05T15:17:45.861Z,9.63
2022-08-05T15:20:15.550Z,9.10
2022-08-05T15:22:44.767Z,10.40
2022-08-05T15:25:14.347Z,10.23
2022-08-05T15:27:52.353Z,10.00
2022-08-05T15:30:21.803Z,12.65
2022-08-05T15:32:49.513Z,11.93
2022-08-05T15:35:16.440Z,9.23
2022-08-05T15:38:34.668Z,11.07
2022-08-05T15:41:03.091Z,9.43
2022-08-05T15:43:21.927Z,9.98
2022-08-05T15:46:00.284Z,9.32
2022-08-05T15:48:28.618Z,9.30
2022-08-05T15:50:56.365Z,12.55
2022-08-05T15:53:26.338Z,11.57
2022-08-05T15:56:02.374Z,11.60
2022-08-05T15:58:35.392Z,9.45
2022-08-05T16:01:16.096Z,10.55
2022-08-05T16:03:43.967Z,10.25
2022-08-05T16:06:11.345Z,10.68
2022-08-05T16:08:41.574Z,9.75
2022-08-05T16:11:10.561Z,10.07
2022-08-05T16:13:37.755Z,10.18
2022-08-05T16:16:05.309Z,10.75
2022-08-05T16:18:33.200Z,9.85
2022-08-05T16:21:04.220Z,11.35
2022-08-05T16:23:53.576Z,10.48
2022-08-05T16:26:26.279Z,9.95
2022-08-05T16:28:55.046Z,11.88
2022-08-05T16:31:23.081Z,10.13
2022-08-05T16:33:52.336Z,10.10
2022-08-05T16:36:23.720Z,10.18
2022-08-05T16:38:54.795Z,10.63
2022-08-05T16:42:14.979Z,9.73
2022-08-05T16:44:11.547Z,10.25
2022-08-05T16:46:41.137Z,11.15
2022-08-05T16:49:09.993Z,10.55
2022-08-05T16:51:42.816Z,11.18
2022-08-05T16:54:25.824Z,11.70
2022-08-05T16:56:56.045Z,11.05
2022-08-05T16:59:23.449Z,9.82
2022-08-05T17:01:54.109Z,11.27
2022-08-05T17:06:55.629Z,13.52
2022-08-05T17:09:24.501Z,10.15
2022-08-05T17:11:59.199Z,12.52
2022-08-05T17:14:37.677Z,11.10
2022-08-05T17:17:14.472Z,10.95
2022-08-05T17:19:45.293Z,11.32
2022-08-05T17:22:24.390Z,14.40
2022-08-05T17:24:57.133Z,12.55
2022-08-05T17:27:33.558Z,12.90
2022-08-05T17:30:02.495Z,11.25
2022-08-05T17:32:32.210Z,11.38
2022-08-05T17:35:04.861Z,11.55
2022-08-05T17:37:41.425Z,12.68
2022-08-05T17:40:17.906Z,10.70
2022-08-05T17:42:51.148Z,12.32
2022-08-05T17:45:29.527Z,11.43
2022-08-05T17:48:07.863Z,10.63
2022-08-05T17:50:34.949Z,14.20
2022-08-05T17:53:04.766Z,13.23
2022-08-05T17:55:37.416Z,11.95
2022-08-05T17:58:12.616Z,13.43
2022-08-05T18:00:45.083Z,11.27
2022-08-05T18:03:56.304Z,11.77
2022-08-05T18:06:11.915Z,14.23
2022-08-05T18:08:44.901Z,14.20
2022-08-05T18:11:24.866Z,13.02
2022-08-05T18:14:06.519Z,18.30
2022-08-05T18:16:35.647Z,12.60
2022-08-05T18:19:18.654Z,11.30
2022-08-05T18:22:08.369Z,12.70
2022-08-05T18:24:38.088Z,11.25
2022-08-05T18:27:12.369Z,11.80
2022-08-05T18:29:48.241Z,12.93
2022-08-05T18:32:20.773Z,12.05
2022-08-05T18:34:55.012Z,11.98
2022-08-05T18:37:33.919Z,13.30
2022-08-05T18:40:33.931Z,13.63
2022-08-05T18:42:49.471Z,13.77
2022-08-05T18:45:19.319Z,11.80
2022-08-05T18:47:51.474Z,12.40
2022-08-05T18:50:46.109Z,12.73
2022-08-05T18:53:20.852Z,11.82
2022-08-05T18:55:51.718Z,13.68
2022-08-05T18:58:18.832Z,13.75
2022-08-05T19:00:56.150Z,13.25
2022-08-05T19:03:55.425Z,16.48
2022-08-05T19:06:18.523Z,14.20
2022-08-05T19:08:46.978Z,11.77
2022-08-05T19:11:15.447Z,13.05
2022-08-05T19:13:49.119Z,12.52
2022-08-05T19:16:35.314Z,12.90
2022-08-05T19:19:14.263Z,12.68
2022-08-05T19:21:44.471Z,13.02
2022-08-05T19:24:13.715Z,13.27
2022-08-05T19:26:54.793Z,14.77
2022-08-05T19:29:35.943Z,12.55
2022-08-05T19:32:08.693Z,12.38
2022-08-05T19:37:47.110Z,13.18
2022-08-05T19:40:24.055Z,14.70
2022-08-05T19:43:04.530Z,14.05
2022-08-05T19:45:36.423Z,15.82
2022-08-05T19:48:05.326Z,11.95
2022-08-05T19:50:32.643Z,12.77
2022-08-05T19:53:09.358Z,14.05
2022-08-05T19:56:14.842Z,14.88
2022-08-05T19:58:29.125Z,13.57
2022-08-05T20:00:57.786Z,17.83
2022-08-05T20:03:26.147Z,12.88
2022-08-05T20:05:56.850Z,13.45
2022-08-05T20:08:25.484Z,15.13
2022-08-05T20:10:53.326Z,12.90
2022-08-05T20:13:30.205Z,15.40
2022-08-05T20:16:08.442Z,14.35
2022-08-05T20:18:36.722Z,13.18
2022-08-05T20:21:06.544Z,12.57
2022-08-05T20:23:50.954Z,14.02
2022-08-05T20:26:20.865Z,15.43
2022-08-05T20:28:51.048Z,12.23
2022-08-05T20:31:21.700Z,13.65
2022-08-05T20:33:51.074Z,13.75
2022-08-05T20:36:19.233Z,11.50
2022-08-05T20:38:53.717Z,12.15
2022-08-05T20:41:23.650Z,15.52
2022-08-05T20:43:59.824Z,14.38
2022-08-05T20:46:30.145Z,13.32
2022-08-05T20:48:57.224Z,14.20
2022-08-05T20:51:24.234Z,15.32
2022-08-05T20:53:55.131Z,15.00
2022-08-05T20:56:31.879Z,16.80
2022-08-05T20:59:19.222Z,13.50
2022-08-05T21:01:53.845Z,11.73
2022-08-05T21:04:27.027Z,14.00
2022-08-05T21:06:55.825Z,15.88
2022-08-05T21:09:23.034Z,12.60
2022-08-05T21:12:09.991Z,11.00
2022-08-05T21:14:38.465Z,16.70
2022-08-05T21:17:06.290Z,14.93
2022-08-05T21:19:47.182Z,15.98
2022-08-05T21:22:23.200Z,13.13
2022-08-05T21:24:52.555Z,14.60
2022-08-05T21:27:25.475Z,12.82
2022-08-05T21:30:01.867Z,13.80
2022-08-05T21:32:30.395Z,17.17
2022-08-05T21:35:08.795Z,13.57
2022-08-05T21:37:47.162Z,14.00
2022-08-05T21:40:18.325Z,14.75
2022-08-05T21:42:45.833Z,12.85
2022-08-05T21:45:24.062Z,13.57
2022-08-05T21:47:56.193Z,16.33
2022-08-05T21:50:25.063Z,12.73
2022-08-05T21:52:52.400Z,13.23
2022-08-05T21:56:00.981Z,14.15
2022-08-05T21:58:10.429Z,11.57
2022-08-05T22:00:40.070Z,15.50
2022-08-05T22:03:10.027Z,15.00
2022-08-05T22:05:48.835Z,14.25
2022-08-05T22:08:22.471Z,15.75
2022-08-05T22:10:51.878Z,15.13
2022-08-05T22:14:06.532Z,16.05
2022-08-05T22:16:32.320Z,14.30
2022-08-05T22:18:58.604Z,16.17
2022-08-05T22:21:26.023Z,15.43
2022-08-05T22:24:13.169Z,14.70
2022-08-05T22:27:17.608Z,13.10
2022-08-05T22:29:44.815Z,16.90
2022-08-05T22:32:17.293Z,14.20
2022-08-05T22:34:44.540Z,13.13
2022-08-05T22:37:12.831Z,16.17
2022-08-05T22:39:39.893Z,13.40
2022-08-05T22:42:11.167Z,14.57
2022-08-05T22:47:11.937Z,13.93
2022-08-05T22:50:20.848Z,12.77
2022-08-05T22:52:32.463Z,13.40
2022-08-05T22:55:02.067Z,13.48
2022-08-05T22:57:34.119Z,12.93
2022-08-05T23:00:07.791Z,13.98
2022-08-05T23:02:36.631Z,15.63
2022-08-05T23:05:13.490Z,16.42
2022-08-05T23:07:48.396Z,15.32
2022-08-05T23:10:20.293Z,13.30
2022-08-05T23:12:55.111Z,12.43
2022-08-05T23:15:29.283Z,15.18
2022-08-05T23:18:02.396Z,13.77
2022-08-05T23:20:37.286Z,13.23
2022-08-05T23:23:08.030Z,13.10
2022-08-05T23:25:51.905Z,13.65
2022-08-05T23:28:28.811Z,17.15
2022-08-05T23:30:57.040Z,15.05
2022-08-05T23:34:03.829Z,11.65
2022-08-05T23:36:38.466Z,15.70
2022-08-05T23:39:05.986Z,19.98
2022-08-05T23:41:34.385Z,13.60
2022-08-05T23:44:08.784Z,12.95
2022-08-05T23:46:37.436Z,19.75
2022-08-05T23:49:15.884Z,16.95
2022-08-05T23:52:03.116Z,14.95
2022-08-05T23:54:34.260Z,18.10
2022-08-05T23:57:05.860Z,15.13
